Time;durP1;ratioP1;P1;durP2;ratioP2;P2;SDS_P1;SDS_P2;PMS_P1;PMS_P2;Temp;Humidity;BMP_temperature;BMP_pressure;BME280_temperature;BME280_humidity;BME280_pressure;Samples;Min_cycle;Max_cycle;Signal;HPM_P1;HPM_P2
2023/05/27 00:01:53;;;;;;;4.22;1.33;;;;;;;11.37;47.16;100939.28;10281795;28;20530;-58
2023/05/27 00:06:54;;;;;;;2.83;1.15;;;;;;;11.27;47.44;100948.50;10299541;28;20485;-58
2023/05/27 00:11:56;;;;;;;2.83;1.40;;;;;;;11.18;47.57;100939.31;10299572;28;20046;-58
2023/05/27 00:16:59;;;;;;;3.65;1.42;;;;;;;11.11;47.85;100937.03;10296430;28;20457;-58
2023/05/27 00:22:01;;;;;;;3.92;1.33;;;;;;;10.97;48.07;100942.03;10298855;28;20095;-58
2023/05/27 00:27:03;;;;;;;3.90;1.40;;;;;;;10.94;48.40;100950.00;10299441;28;20549;-58
2023/05/27 00:32:05;;;;;;;3.75;1.50;;;;;;;10.82;48.88;100953.16;10275190;28;20755;-58
2023/05/27 00:37:08;;;;;;;3.45;1.27;;;;;;;10.88;49.20;100955.50;10295494;28;20054;-58
2023/05/27 00:42:10;;;;;;;4.00;1.50;;;;;;;10.70;49.20;100958.94;10298756;28;20053;-58
2023/05/27 00:47:12;;;;;;;3.10;1.58;;;;;;;10.59;49.67;100956.78;10279307;28;20069;-57
2023/05/27 00:52:14;;;;;;;4.78;1.60;;;;;;;10.63;49.73;100954.88;10277554;28;20051;-58
2023/05/27 00:57:16;;;;;;;5.47;1.73;;;;;;;10.63;49.83;100966.22;10280715;28;20301;-58
2023/05/27 01:02:18;;;;;;;4.70;1.80;;;;;;;10.41;50.45;100960.22;10297113;28;20050;-57
2023/05/27 01:07:45;;;;;;;2.83;1.45;;;;;;;10.19;51.81;100948.97;10279977;28;20062;-58
2023/05/27 01:12:59;;;;;;;5.80;1.40;;;;;;;10.28;51.14;100952.03;10297809;28;20046;-58
2023/05/27 01:18:05;;;;;;;3.08;1.80;;;;;;;9.98;51.05;100958.53;10279885;28;20046;-58
2023/05/27 01:23:08;;;;;;;4.03;1.40;;;;;;;9.88;51.40;100952.00;10297616;28;20414;-58
2023/05/27 01:28:11;;;;;;;2.85;1.38;;;;;;;9.70;51.87;100941.44;10297923;28;20741;-57
2023/05/27 01:33:19;;;;;;;5.80;1.95;;;;;;;9.70;52.87;100941.44;10312228;28;20539;-58
2023/05/27 01:38:24;;;;;;;4.70;1.65;;;;;;;9.42;52.53;100944.25;10298120;28;20046;-57
2023/05/27 01:43:27;;;;;;;4.40;1.90;;;;;;;9.53;52.73;100932.47;10297669;28;20042;-58
2023/05/27 01:48:29;;;;;;;2.80;1.55;;;;;;;9.72;52.50;100932.63;10280738;28;20505;-58
2023/05/27 01:53:31;;;;;;;3.80;1.40;;;;;;;9.65;52.55;100931.97;10280220;28;20268;-58
2023/05/27 01:58:33;;;;;;;3.25;1.58;;;;;;;9.33;53.25;100931.56;10278352;28;20034;-58
2023/05/27 02:03:35;;;;;;;5.50;1.80;;;;;;;9.23;53.58;100930.22;10282895;28;20408;-57
2023/05/27 02:08:37;;;;;;;3.60;1.52;;;;;;;9.21;53.82;100927.66;10287261;28;20050;-58
2023/05/27 02:13:41;;;;;;;4.15;1.45;;;;;;;9.03;54.42;100925.75;10304780;28;20502;-58
2023/05/27 02:18:43;;;;;;;5.60;1.70;;;;;;;8.93;54.93;100919.19;10284080;28;20050;-58
2023/05/27 02:23:44;;;;;;;4.75;1.80;;;;;;;8.87;55.72;100913.34;10286977;28;20046;-58
2023/05/27 02:28:46;;;;;;;4.85;1.67;;;;;;;8.78;56.10;100920.59;10287411;28;20056;-58
2023/05/27 02:33:48;;;;;;;5.07;1.70;;;;;;;8.92;55.54;100911.38;10301026;28;20038;-58
2023/05/27 02:38:50;;;;;;;3.00;1.42;;;;;;;8.79;55.67;100921.44;10227658;28;20515;-58
2023/05/27 02:43:52;;;;;;;3.75;1.83;;;;;;;8.49;56.43;100927.75;10206618;28;20051;-58
2023/05/27 02:48:54;;;;;;;3.83;1.83;;;;;;;8.48;56.44;100926.06;10223055;29;20423;-58
2023/05/27 02:53:56;;;;;;;6.00;1.60;;;;;;;8.70;56.10;100927.00;10220153;28;20602;-58
2023/05/27 02:58:58;;;;;;;6.18;3.10;;;;;;;8.70;56.14;100919.16;10222179;28;20050;-58
2023/05/27 03:04:00;;;;;;;4.05;1.60;;;;;;;8.74;55.96;100923.38;10219520;28;20051;-58
2023/05/27 03:09:02;;;;;;;5.93;1.50;;;;;;;8.78;56.05;100922.34;10216392;28;20080;-58
2023/05/27 03:14:04;;;;;;;4.07;1.83;;;;;;;8.78;55.99;100922.34;10217006;28;20503;-58
2023/05/27 03:19:08;;;;;;;3.53;1.83;;;;;;;8.82;55.94;100926.53;10222397;29;20044;-59
2023/05/27 03:24:11;;;;;;;3.28;1.60;;;;;;;8.71;56.21;100923.47;10220724;28;20650;-58
2023/05/27 03:29:12;;;;;;;5.30;1.88;;;;;;;8.63;56.59;100923.75;10223635;28;20054;-58
2023/05/27 03:34:14;;;;;;;4.43;1.75;;;;;;;8.73;56.16;100917.28;10205680;28;20059;-58
2023/05/27 03:39:17;;;;;;;2.45;1.55;;;;;;;8.89;56.08;100922.81;10219779;28;20062;-57
2023/05/27 03:44:26;;;;;;;5.80;2.05;;;;;;;8.95;55.78;100916.50;10221886;29;20526;-58
2023/05/27 03:49:28;;;;;;;3.30;1.75;;;;;;;8.80;55.96;100917.91;10222754;28;20047;-58
2023/05/27 03:54:31;;;;;;;2.67;1.60;;;;;;;8.72;56.19;100920.81;10220569;28;20136;-58
2023/05/27 03:59:33;;;;;;;3.95;1.88;;;;;;;8.95;56.09;100917.38;10222016;28;20521;-58
2023/05/27 04:04:35;;;;;;;2.67;1.40;;;;;;;9.23;55.63;100919.75;10220831;28;20052;-58
2023/05/27 04:09:37;;;;;;;3.40;1.58;;;;;;;9.29;55.00;100920.38;10219599;28;20302;-58
2023/05/27 04:14:39;;;;;;;4.30;1.60;;;;;;;9.36;55.65;100916.59;10220033;28;20388;-58
2023/05/27 04:19:41;;;;;;;5.43;1.67;;;;;;;10.65;53.95;100912.06;10220250;28;20043;-58
2023/05/27 04:24:43;;;;;;;7.28;2.00;;;;;;;12.04;51.40;100918.53;10218992;28;20047;-58
2023/05/27 04:29:47;;;;;;;8.90;3.60;;;;;;;13.11;49.32;100909.41;10219527;28;20097;-58
2023/05/27 04:34:50;;;;;;;6.70;2.78;;;;;;;14.03;47.97;100912.00;10224005;28;20502;-59
2023/05/27 04:39:53;;;;;;;5.53;2.42;;;;;;;15.10;46.26;100910.72;10283384;28;20057;-58
2023/05/27 04:44:55;;;;;;;6.55;2.20;;;;;;;16.15;45.05;100901.13;10282854;28;20418;-58
2023/05/27 04:49:57;;;;;;;4.95;2.05;;;;;;;17.10;42.99;100898.06;10283503;28;20104;-58
2023/05/27 04:54:59;;;;;;;3.95;1.77;;;;;;;17.65;42.39;100896.59;10299111;28;20043;-58
2023/05/27 05:05:14;;;;;;;7.07;2.00;;;;;;;19.35;39.82;100900.97;10282717;28;20046;-59
2023/05/27 05:10:16;;;;;;;3.88;1.80;;;;;;;19.66;39.02;100899.31;10300287;28;20054;-59
2023/05/27 05:15:23;;;;;;;3.35;1.63;;;;;;;20.62;37.73;100892.91;10279931;28;20057;-59
2023/05/27 05:20:27;;;;;;;3.55;1.70;;;;;;;21.76;36.03;100884.41;10282578;28;20050;-59
2023/05/27 05:25:35;;;;;;;2.95;1.55;;;;;;;20.95;35.61;100889.97;10280138;28;20049;-59
2023/05/27 05:30:38;;;;;;;3.92;1.73;;;;;;;18.84;38.15;100899.78;10282251;28;20052;-58
2023/05/27 05:35:41;;;;;;;4.20;1.77;;;;;;;17.25;40.11;100900.41;10279357;28;20055;-58
2023/05/27 05:40:57;;;;;;;3.90;1.80;;;;;;;16.40;40.94;100907.38;10281465;28;20051;-59
2023/05/27 05:46:01;;;;;;;4.60;1.83;;;;;;;15.86;41.79;100902.22;10297439;28;20510;-59
2023/05/27 05:51:04;;;;;;;4.25;1.70;;;;;;;15.20;42.60;100907.41;10283958;28;20585;-59
2023/05/27 05:56:07;;;;;;;3.88;1.63;;;;;;;14.81;43.54;100909.03;10281465;28;20043;-59
2023/05/27 06:01:09;;;;;;;9.93;2.20;;;;;;;14.46;44.15;100909.38;10288972;28;20054;-59
2023/05/27 06:06:14;;;;;;;5.15;1.80;;;;;;;14.24;45.13;100911.59;10274032;28;20050;-59
2023/05/27 06:11:37;;;;;;;6.22;2.05;;;;;;;14.12;45.06;100909.72;10303163;28;20054;-59
2023/05/27 06:16:39;;;;;;;6.43;1.75;;;;;;;13.89;45.40;100918.06;10274789;28;20038;-59
2023/05/27 06:21:43;;;;;;;5.35;1.80;;;;;;;14.23;45.11;100912.53;10291165;28;20203;-59
2023/05/27 06:27:11;;;;;;;4.15;1.70;;;;;;;14.68;44.92;100916.00;10290357;28;20062;-59
2023/05/27 06:32:13;;;;;;;4.22;1.80;;;;;;;14.21;45.06;100916.19;10277492;28;20056;-59
2023/05/27 06:37:14;;;;;;;3.83;1.50;;;;;;;14.51;44.83;100912.59;10275067;28;20078;-59
2023/05/27 06:42:18;;;;;;;5.93;1.92;;;;;;;14.92;44.92;100906.59;10267720;28;20570;-59
2023/05/27 06:47:43;;;;;;;5.82;2.40;;;;;;;14.64;44.51;100899.53;10293139;28;20084;-59
2023/05/27 06:52:45;;;;;;;3.45;1.75;;;;;;;14.93;44.68;100903.00;10279523;28;20466;-59
2023/05/27 06:57:58;;;;;;;7.82;2.05;;;;;;;15.02;44.11;100894.56;10313029;28;20046;-59
2023/05/27 07:03:23;;;;;;;6.45;1.85;;;;;;;15.24;44.04;100886.97;10290205;28;20058;-59
2023/05/27 07:08:27;;;;;;;4.80;2.05;;;;;;;15.31;43.45;100886.47;10280069;28;20080;-59
2023/05/27 07:13:44;;;;;;;4.13;1.65;;;;;;;15.40;43.64;100866.59;10278516;28;20147;-59
2023/05/27 07:18:47;;;;;;;5.43;1.75;;;;;;;16.01;42.48;100868.69;10282983;28;20072;-60
2023/05/27 07:23:50;;;;;;;5.78;1.85;;;;;;;16.16;42.50;100868.47;10282699;28;20344;-59
2023/05/27 07:29:00;;;;;;;4.47;1.77;;;;;;;17.26;41.93;100861.63;10282254;28;20050;-59
2023/05/27 07:34:23;;;;;;;4.90;1.80;;;;;;;18.75;40.20;100851.97;10267214;28;20062;-59
2023/05/27 07:39:25;;;;;;;3.95;1.50;;;;;;;20.00;37.51;100849.59;10221102;28;20051;-60
2023/05/27 07:44:27;;;;;;;7.10;1.67;;;;;;;20.48;36.45;100837.41;10209785;28;20047;-59
2023/05/27 07:49:30;;;;;;;4.53;1.63;;;;;;;20.69;36.73;100822.28;10233411;28;20047;-60
2023/05/27 07:54:51;;;;;;;2.40;1.20;;;;;;;22.03;36.00;100813.56;10220829;28;20106;-59
2023/05/27 07:59:59;;;;;;;3.42;1.60;;;;;;;21.68;34.22;100806.22;10229216;28;20055;-59
2023/05/27 08:05:15;;;;;;;5.65;1.70;;;;;;;21.74;34.39;100806.47;10213991;28;20275;-58
2023/05/27 08:10:46;;;;;;;4.13;1.87;;;;;;;22.09;34.15;100794.41;10201483;28;20147;-58
2023/05/27 08:16:20;;;;;;;3.83;1.70;;;;;;;21.51;33.77;100791.81;10220211;28;20147;-59
2023/05/27 08:21:39;;;;;;;3.67;1.50;;;;;;;22.53;32.85;100785.69;10216721;28;20606;-59
2023/05/27 08:27:14;;;;;;;9.23;1.90;;;;;;;22.73;31.83;100779.28;10249935;28;20059;-60
2023/05/27 08:32:30;;;;;;;3.58;1.80;;;;;;;23.53;32.21;100762.44;10213851;28;20073;-59
2023/05/27 08:37:33;;;;;;;4.70;1.70;;;;;;;22.55;32.31;100762.38;10257686;28;20490;-59
2023/05/27 08:42:36;;;;;;;3.72;1.60;;;;;;;22.84;32.36;100752.41;10276635;28;20133;-59
2023/05/27 08:47:39;;;;;;;6.00;2.00;;;;;;;22.63;31.39;100746.47;10294922;28;20144;-60
2023/05/27 08:52:49;;;;;;;4.78;1.80;;;;;;;22.69;31.19;100743.22;10277043;28;20282;-60
2023/05/27 08:57:55;;;;;;;3.00;1.48;;;;;;;22.20;30.69;100741.78;10279320;28;20047;-60
2023/05/27 09:02:59;;;;;;;4.53;1.70;;;;;;;22.87;31.52;100727.25;10307107;28;20153;-60
2023/05/27 09:08:09;;;;;;;7.25;1.83;;;;;;;22.92;31.05;100730.31;10277749;28;20047;-60
2023/05/27 09:13:11;;;;;;;3.95;1.85;;;;;;;22.54;31.24;100731.38;10295878;28;20126;-59
2023/05/27 09:18:13;;;;;;;4.28;1.70;;;;;;;22.60;31.21;100728.94;10295265;28;20046;-60
2023/05/27 09:23:17;;;;;;;3.50;1.73;;;;;;;22.53;31.39;100719.03;10296725;28;20472;-60
2023/05/27 09:28:23;;;;;;;4.90;1.90;;;;;;;22.66;29.92;100725.69;10293932;28;20042;-60
2023/05/27 09:33:27;;;;;;;5.72;1.70;;;;;;;23.22;30.96;100706.78;10297854;28;20057;-60
2023/05/27 09:38:33;;;;;;;3.78;1.80;;;;;;;23.27;29.53;100703.63;10293822;28;20045;-60
2023/05/27 09:43:36;;;;;;;2.92;1.60;;;;;;;23.20;30.13;100697.22;10294539;28;20077;-60
2023/05/27 09:48:58;;;;;;;3.63;1.70;;;;;;;23.35;30.77;100695.69;10277654;28;20054;-60
2023/05/27 09:54:01;;;;;;;2.88;1.48;;;;;;;23.01;30.42;100682.22;10278969;28;20134;-60
2023/05/27 09:59:06;;;;;;;3.83;1.55;;;;;;;23.21;29.66;100683.72;10294103;28;20057;-60
2023/05/27 10:04:07;;;;;;;4.85;1.75;;;;;;;23.43;29.56;100677.09;10291049;28;20042;-60
2023/05/27 10:09:09;;;;;;;2.45;1.15;;;;;;;23.74;30.03;100669.44;10294128;28;20074;-60
2023/05/27 10:14:11;;;;;;;3.85;1.70;;;;;;;23.62;30.17;100660.88;10276127;28;20042;-60
2023/05/27 10:19:13;;;;;;;3.83;1.60;;;;;;;23.96;30.27;100655.56;10297583;28;20585;-60
2023/05/27 10:24:15;;;;;;;4.50;1.60;;;;;;;24.06;29.79;100654.41;10296594;28;20061;-60
2023/05/27 10:29:17;;;;;;;4.70;1.50;;;;;;;24.04;29.90;100639.56;10297494;28;20053;-60
2023/05/27 10:34:19;;;;;;;2.72;1.42;;;;;;;23.97;29.89;100642.03;10300725;28;20096;-60
2023/05/27 10:39:21;;;;;;;4.07;1.63;;;;;;;23.57;30.68;100647.16;10259347;28;20490;-60
2023/05/27 10:44:31;;;;;;;4.50;1.85;;;;;;;22.69;29.39;100639.22;10256930;28;20415;-60
2023/05/27 10:49:37;;;;;;;;;;;;;;;21.94;29.60;100638.66;10260417;28;20051;-59
2023/05/27 10:54:40;;;;;;;3.60;1.60;;;;;;;22.21;30.64;100631.53;10258987;28;19926;-60
2023/05/27 10:59:52;;;;;;;3.50;1.73;;;;;;;22.37;30.95;100617.56;10257072;28;20050;-60
2023/05/27 11:04:59;;;;;;;3.72;1.63;;;;;;;22.39;31.00;100616.41;10259180;28;20043;-60
2023/05/27 11:10:01;;;;;;;3.90;1.58;;;;;;;22.42;31.01;100610.78;10258029;28;20096;-60
2023/05/27 11:15:03;;;;;;;3.72;1.55;;;;;;;22.41;30.87;100608.28;10259153;28;20050;-60
2023/05/27 11:20:07;;;;;;;3.47;1.23;;;;;;;22.03;29.72;100604.00;10256822;28;20224;-59
2023/05/27 11:25:10;;;;;;;4.20;1.70;;;;;;;21.71;30.30;100599.09;10257841;28;20073;-60
2023/05/27 11:30:14;;;;;;;6.60;1.67;;;;;;;21.63;31.08;100591.00;10257126;28;20108;-60
2023/05/27 11:35:17;;;;;;;3.58;1.70;;;;;;;21.91;31.56;100586.53;10262234;28;20549;-60
2023/05/27 11:40:20;;;;;;;6.00;1.67;;;;;;;21.65;30.51;100581.06;10296985;28;20046;-60
2023/05/27 11:45:22;;;;;;;5.28;1.80;;;;;;;21.72;31.11;100574.13;10297529;28;20045;-60
2023/05/27 11:50:24;;;;;;;4.40;1.33;;;;;;;22.12;31.04;100557.84;10295269;28;20057;-60
2023/05/27 11:55:26;;;;;;;2.63;1.20;;;;;;;22.53;30.72;100559.94;10300339;28;20042;-59
2023/05/27 12:00:29;;;;;;;5.07;1.48;;;;;;;22.32;30.18;100551.38;10295301;28;20046;-59
2023/05/27 12:05:31;;;;;;;3.10;1.40;;;;;;;22.37;30.23;100541.09;10295995;28;20405;-59
2023/05/27 12:10:35;;;;;;;4.35;1.60;;;;;;;22.40;29.89;100548.78;10298222;28;20137;-59
2023/05/27 12:15:37;;;;;;;4.70;1.40;;;;;;;22.30;29.77;100542.72;10278268;28;20046;-59
2023/05/27 12:20:39;;;;;;;5.70;1.30;;;;;;;22.08;29.92;100523.66;10297204;28;20072;-59
2023/05/27 12:25:42;;;;;;;4.53;1.75;;;;;;;22.13;30.47;100522.19;10278502;28;20051;-59
2023/05/27 12:30:44;;;;;;;1.92;1.23;;;;;;;22.26;30.53;100516.50;10298555;28;20058;-59
2023/05/27 12:35:46;;;;;;;2.10;1.23;;;;;;;22.50;30.67;100503.38;10295968;28;20047;-59
2023/05/27 12:40:48;;;;;;;4.35;1.75;;;;;;;22.72;30.21;100502.09;10296623;28;20141;-60
2023/05/27 12:45:51;;;;;;;2.97;1.40;;;;;;;22.58;29.44;100498.13;10279012;28;20731;-59
2023/05/27 12:50:54;;;;;;;3.28;1.55;;;;;;;22.60;29.75;100491.66;10296139;28;20065;-60
2023/05/27 12:55:56;;;;;;;2.42;1.40;;;;;;;22.69;29.89;100495.22;10295200;28;20135;-60
2023/05/27 13:00:58;;;;;;;9.15;1.83;;;;;;;22.59;29.35;100482.00;10293854;28;20485;-59
2023/05/27 13:06:00;;;;;;;2.75;1.45;;;;;;;22.39;28.99;100469.81;10280938;28;20053;-59
2023/05/27 13:11:02;;;;;;;5.25;1.50;;;;;;;22.47;29.37;100466.41;10280849;28;20050;-59
2023/05/27 13:16:05;;;;;;;3.88;1.60;;;;;;;22.62;29.34;100464.81;10297457;28;20039;-59
2023/05/27 13:21:07;;;;;;;2.65;1.33;;;;;;;22.69;28.69;100456.06;10297566;28;20046;-59
2023/05/27 13:26:10;;;;;;;2.72;1.52;;;;;;;22.66;28.75;100459.03;10277972;28;20050;-59
2023/05/27 13:31:12;;;;;;;5.20;1.67;;;;;;;22.82;29.24;100447.66;10279701;28;20046;-60
2023/05/27 13:36:14;;;;;;;2.53;1.48;;;;;;;22.82;28.70;100436.19;10297105;28;20050;-60
2023/05/27 13:41:16;;;;;;;3.63;1.60;;;;;;;22.69;28.88;100442.75;10296626;28;20529;-60
2023/05/27 13:46:18;;;;;;;3.53;1.55;;;;;;;22.72;28.39;100420.22;10280835;28;20042;-59
2023/05/27 13:51:20;;;;;;;2.97;1.50;;;;;;;22.90;28.99;100420.22;10296399;28;20141;-60
2023/05/27 13:56:22;;;;;;;3.28;1.52;;;;;;;23.00;29.16;100412.94;10276875;28;20054;-59
2023/05/27 14:01:24;;;;;;;2.53;1.40;;;;;;;23.11;28.27;100400.13;10293410;28;20051;-59
2023/05/27 14:06:26;;;;;;;2.70;1.60;;;;;;;23.09;28.75;100393.28;10284150;28;20320;-59
2023/05/27 14:11:28;;;;;;;2.90;1.25;;;;;;;23.38;28.00;100396.41;10292301;28;20494;-60
2023/05/27 14:16:30;;;;;;;2.85;1.52;;;;;;;23.24;27.76;100394.34;10292672;28;20490;-60
2023/05/27 14:21:32;;;;;;;2.55;1.42;;;;;;;23.28;27.72;100395.69;10278977;28;20056;-59
2023/05/27 14:26:37;;;;;;;4.65;1.48;;;;;;;23.03;27.93;100393.94;10297862;28;20053;-60
2023/05/27 14:31:39;;;;;;;3.40;1.30;;;;;;;23.20;27.47;100379.66;10271922;28;20077;-59
2023/05/27 14:36:42;;;;;;;2.70;1.30;;;;;;;23.52;27.93;100379.78;10294318;28;20587;-59
2023/05/27 14:41:44;;;;;;;3.95;1.55;;;;;;;23.60;27.77;100374.47;10276628;28;20042;-60
2023/05/27 14:46:46;;;;;;;7.20;2.05;;;;;;;23.81;27.85;100368.66;10295496;28;20089;-59
2023/05/27 14:51:48;;;;;;;5.95;1.63;;;;;;;23.57;27.22;100364.13;10289122;28;20141;-59
2023/05/27 14:56:50;;;;;;;3.25;1.50;;;;;;;23.39;28.20;100356.19;10295483;28;20065;-59
2023/05/27 15:01:51;;;;;;;5.05;1.63;;;;;;;23.57;27.89;100361.44;10297176;28;20046;-60
2023/05/27 15:06:53;;;;;;;4.50;1.58;;;;;;;23.26;27.58;100349.66;10296425;28;20051;-59
2023/05/27 15:11:55;;;;;;;6.30;1.50;;;;;;;22.86;27.02;100353.00;10296503;28;20042;-60
2023/05/27 15:16:57;;;;;;;3.25;1.40;;;;;;;22.96;27.91;100353.75;10302683;28;20131;-60
2023/05/27 15:21:59;;;;;;;3.05;1.35;;;;;;;23.03;28.72;100348.56;10299503;28;20047;-60
2023/05/27 15:27:02;;;;;;;3.88;1.50;;;;;;;23.11;27.81;100341.44;10299516;28;20050;-60
2023/05/27 15:32:04;;;;;;;3.22;1.70;;;;;;;23.24;27.98;100338.31;10300390;28;20057;-59
2023/05/27 15:37:59;;;;;;;3.10;1.52;;;;;;;23.17;27.23;100339.94;10539054;27;20577;-60
2023/05/27 15:48:37;;;;;;;3.88;1.48;;;;;;;22.42;27.00;100332.75;10541451;27;20478;-59
2023/05/27 15:53:39;;;;;;;4.13;1.40;;;;;;;22.76;27.35;100319.47;10536868;28;20055;-59
2023/05/27 15:58:44;;;;;;;3.58;1.70;;;;;;;22.76;26.87;100309.63;10540964;28;20040;-59
2023/05/27 16:03:45;;;;;;;2.83;1.50;;;;;;;22.74;26.85;100308.13;10536741;28;20137;-59
2023/05/27 16:08:47;;;;;;;3.67;1.50;;;;;;;22.78;26.92;100296.16;10542547;28;20051;-60
2023/05/27 16:13:49;;;;;;;4.47;1.50;;;;;;;22.72;25.91;100302.91;10532167;28;20044;-60
2023/05/27 16:18:51;;;;;;;3.30;1.50;;;;;;;22.85;27.27;100297.16;10521583;28;20055;-60
2023/05/27 16:23:53;;;;;;;3.15;1.40;;;;;;;22.98;26.57;100289.56;10537110;28;20040;-60
2023/05/27 16:29:08;;;;;;;4.65;1.50;;;;;;;22.81;26.15;100288.66;10539669;28;20883;-59
2023/05/27 16:34:10;;;;;;;3.05;1.40;;;;;;;22.68;26.64;100291.72;10536923;28;20064;-60
2023/05/27 16:39:12;;;;;;;2.90;1.40;;;;;;;22.87;26.71;100284.50;10540871;28;20044;-59
2023/05/27 16:44:14;;;;;;;3.05;1.50;;;;;;;23.00;26.83;100274.22;10537585;28;20143;-59
2023/05/27 16:49:16;;;;;;;2.17;1.30;;;;;;;23.03;26.42;100273.88;10539427;28;20086;-60
2023/05/27 16:54:18;;;;;;;3.78;1.70;;;;;;;22.78;26.19;100274.81;10537132;28;20043;-59
2023/05/27 16:59:20;;;;;;;3.97;1.73;;;;;;;22.79;26.33;100265.81;10498443;28;20044;-60
2023/05/27 17:04:22;;;;;;;2.90;1.42;;;;;;;22.55;26.12;100259.38;10508798;28;20915;-60
2023/05/27 17:09:24;;;;;;;4.20;1.65;;;;;;;22.63;26.14;100256.75;10511921;28;20068;-60
2023/05/27 17:14:26;;;;;;;2.75;1.40;;;;;;;22.46;26.50;100262.13;10506787;28;20056;-60
2023/05/27 17:19:28;;;;;;;4.13;1.50;;;;;;;22.37;26.18;100263.91;10511758;28;20456;-59
2023/05/27 17:24:30;;;;;;;3.78;1.40;;;;;;;22.35;26.43;100263.25;10490153;28;20044;-60
2023/05/27 17:29:32;;;;;;;2.47;1.30;;;;;;;22.27;26.18;100262.41;10511617;28;20059;-60
2023/05/27 17:34:34;;;;;;;2.78;1.20;;;;;;;22.26;26.44;100261.53;10507136;28;20143;-60
2023/05/27 17:39:36;;;;;;;2.83;1.58;;;;;;;22.26;26.00;100253.56;10510125;28;20050;-60
2023/05/27 17:44:38;;;;;;;2.15;1.45;;;;;;;22.04;26.56;100256.75;10507099;28;20404;-60
2023/05/27 17:49:40;;;;;;;2.75;1.40;;;;;;;22.03;26.83;100252.41;10508168;28;20400;-60
2023/05/27 17:54:43;;;;;;;2.63;1.50;;;;;;;21.85;26.70;100254.25;10490424;28;20773;-60
2023/05/27 17:59:45;;;;;;;3.17;1.58;;;;;;;21.77;26.48;100246.22;10506017;28;20051;-60
2023/05/27 18:04:47;;;;;;;2.45;1.40;;;;;;;21.63;27.08;100244.09;10507942;28;20522;-60
2023/05/27 18:09:49;;;;;;;2.58;1.40;;;;;;;21.56;27.12;100251.03;10504266;28;20052;-60
2023/05/27 18:14:51;;;;;;;3.45;1.65;;;;;;;21.47;27.39;100246.63;10507286;28;20056;-60
2023/05/27 18:19:54;;;;;;;4.50;1.80;;;;;;;21.26;27.59;100262.03;10506031;28;20063;-60
2023/05/27 18:24:56;;;;;;;3.10;1.58;;;;;;;21.06;27.76;100256.88;10508870;28;20381;-60
2023/05/27 18:29:58;;;;;;;2.83;1.42;;;;;;;20.99;27.84;100258.44;10500444;28;20079;-60
2023/05/27 18:35:00;;;;;;;2.25;1.40;;;;;;;20.76;28.38;100274.97;10508562;28;20052;-60
2023/05/27 18:40:10;;;;;;;;;;;;;;;20.46;29.20;100269.91;10470989;28;20044;-60
2023/05/27 18:45:12;;;;;;;4.18;1.63;;;;;;;20.36;29.76;100277.09;10507717;28;20272;-60
2023/05/27 18:50:14;;;;;;;3.50;1.70;;;;;;;20.23;30.39;100266.78;10505268;28;20052;-60
2023/05/27 18:55:32;;;;;;;3.05;1.50;;;;;;;19.95;30.79;100283.63;10472332;28;20078;-60
2023/05/27 19:00:34;;;;;;;3.30;1.52;;;;;;;19.71;31.07;100286.69;10484039;28;20044;-60
2023/05/27 19:05:37;;;;;;;3.72;1.60;;;;;;;19.58;31.69;100288.81;10505843;28;20044;-60
2023/05/27 19:10:43;;;;;;;2.95;1.50;;;;;;;19.42;32.17;100296.47;10501878;28;20059;-60
2023/05/27 19:15:45;;;;;;;5.28;1.90;;;;;;;19.08;32.71;100296.03;10485234;28;20404;-59
2023/05/27 19:20:48;;;;;;;5.50;1.70;;;;;;;18.84;33.39;100289.38;10501864;28;20036;-60
2023/05/27 19:25:51;;;;;;;4.22;1.67;;;;;;;18.63;34.14;100294.75;10503689;28;20056;-59
2023/05/27 19:30:53;;;;;;;6.13;1.92;;;;;;;18.46;34.65;100295.38;10503383;28;20857;-59
2023/05/27 19:35:56;;;;;;;3.30;1.58;;;;;;;18.32;34.86;100298.38;10505715;28;20048;-59
2023/05/27 19:40:59;;;;;;;2.60;1.50;;;;;;;18.13;35.33;100299.09;10502801;28;20044;-59
2023/05/27 19:46:02;;;;;;;2.97;1.70;;;;;;;18.01;35.75;100305.41;10504291;28;20910;-59
2023/05/27 19:51:04;;;;;;;4.68;1.75;;;;;;;17.89;35.83;100313.56;10501375;28;20823;-59
2023/05/27 19:56:06;;;;;;;5.20;1.63;;;;;;;17.64;36.03;100305.03;10470740;28;20047;-59
2023/05/27 20:01:08;;;;;;;4.38;1.98;;;;;;;17.44;36.72;100313.75;10500863;28;20538;-59
2023/05/27 20:06:13;;;;;;;6.40;2.03;;;;;;;17.41;36.89;100310.50;10486717;28;20134;-59
2023/05/27 20:11:15;;;;;;;4.70;2.13;;;;;;;17.33;37.09;100318.19;10500759;28;20488;-59
2023/05/27 20:16:17;;;;;;;3.40;1.85;;;;;;;17.22;37.39;100321.69;10479439;28;20036;-59
2023/05/27 20:21:21;;;;;;;4.00;2.00;;;;;;;17.13;37.97;100316.34;10501563;28;20048;-59
2023/05/27 20:26:24;;;;;;;4.93;2.20;;;;;;;17.01;38.32;100323.44;10504445;28;20138;-59
2023/05/27 20:31:26;;;;;;;4.35;2.20;;;;;;;16.80;38.66;100333.06;10502003;28;20373;-59
2023/05/27 20:36:29;;;;;;;4.60;2.03;;;;;;;16.45;39.54;100335.84;10506415;28;20155;-59
2023/05/27 20:41:31;;;;;;;4.20;1.80;;;;;;;16.32;39.82;100329.81;10512946;28;20048;-59
2023/05/27 20:46:33;;;;;;;4.15;2.00;;;;;;;16.21;40.48;100338.53;10511862;28;20056;-59
2023/05/27 20:51:36;;;;;;;5.40;2.00;;;;;;;15.99;40.70;100341.13;10511070;28;20055;-59
2023/05/27 20:56:38;;;;;;;5.43;2.33;;;;;;;15.81;40.99;100339.03;10495071;28;20043;-59
2023/05/27 21:01:40;;;;;;;5.18;2.53;;;;;;;15.42;41.99;100342.78;10514983;28;20203;-59
2023/05/27 21:06:42;;;;;;;4.95;2.50;;;;;;;15.12;42.43;100339.75;10494500;28;20051;-59
2023/05/27 21:11:44;;;;;;;5.07;2.35;;;;;;;15.10;42.80;100339.03;10513896;28;20492;-59
2023/05/27 21:16:46;;;;;;;4.82;2.00;;;;;;;15.02;43.39;100344.00;10513634;28;20048;-59
2023/05/27 21:21:48;;;;;;;6.97;2.80;;;;;;;14.88;43.62;100337.06;10511195;28;20047;-59
2023/05/27 21:26:50;;;;;;;9.15;4.78;;;;;;;14.62;44.32;100334.56;10513620;28;20056;-59
2023/05/27 21:31:52;;;;;;;6.75;3.55;;;;;;;14.45;44.97;100335.75;10512726;28;20674;-59
2023/05/27 21:36:54;;;;;;;7.50;4.03;;;;;;;14.32;45.06;100338.38;10494401;28;20110;-58
2023/05/27 21:41:56;;;;;;;5.53;2.65;;;;;;;14.24;45.29;100337.22;10511714;28;20051;-59
2023/05/27 21:46:58;;;;;;;5.43;2.53;;;;;;;14.22;45.83;100337.31;10507656;28;20048;-59
2023/05/27 21:52:00;;;;;;;4.45;2.28;;;;;;;14.18;45.89;100327.97;10509890;28;20132;-59
2023/05/27 21:57:03;;;;;;;5.00;2.15;;;;;;;14.05;46.34;100334.97;10510736;28;20407;-58
2023/05/27 22:02:05;;;;;;;4.55;2.22;;;;;;;14.09;46.45;100331.19;10510124;28;20109;-59
2023/05/27 22:07:07;;;;;;;5.18;2.40;;;;;;;13.67;46.90;100320.94;10509653;28;20048;-59
2023/05/27 22:12:12;;;;;;;4.88;2.65;;;;;;;13.59;47.58;100320.59;10510897;28;20424;-58
2023/05/27 22:17:14;;;;;;;4.68;2.15;;;;;;;13.67;47.59;100313.06;10507894;28;20036;-58
2023/05/27 22:22:16;;;;;;;3.78;2.13;;;;;;;13.61;47.71;100313.47;10509489;28;20467;-59
2023/05/27 22:27:17;;;;;;;4.82;2.22;;;;;;;13.51;47.80;100320.25;10505525;28;20044;-58
2023/05/27 22:32:19;;;;;;;6.25;2.47;;;;;;;13.44;48.05;100313.72;10508276;28;20130;-58
2023/05/27 22:37:21;;;;;;;3.90;2.10;;;;;;;13.45;48.21;100307.53;10507989;28;20998;-58
2023/05/27 22:42:23;;;;;;;6.00;2.15;;;;;;;13.39;48.38;100300.03;10508495;28;20047;-58
2023/05/27 22:47:25;;;;;;;4.75;2.38;;;;;;;13.42;48.52;100299.81;10509738;28;20081;-59
2023/05/27 22:52:27;;;;;;;4.20;2.17;;;;;;;13.26;48.86;100297.34;10509035;28;20050;-59
2023/05/27 22:57:29;;;;;;;5.68;2.55;;;;;;;13.18;48.86;100299.63;10506632;28;20036;-59
2023/05/27 23:02:31;;;;;;;3.80;2.03;;;;;;;12.98;49.30;100299.22;10507356;28;20426;-59
2023/05/27 23:07:33;;;;;;;6.97;2.80;;;;;;;12.86;49.78;100299.03;10505963;28;20046;-59
2023/05/27 23:12:36;;;;;;;4.93;2.30;;;;;;;12.73;49.96;100297.28;10506302;28;20051;-58
2023/05/27 23:17:38;;;;;;;4.88;2.22;;;;;;;12.63;50.31;100297.03;10507263;28;20048;-58
2023/05/27 23:22:40;;;;;;;3.17;1.90;;;;;;;12.51;50.48;100300.41;10506091;28;20139;-58
2023/05/27 23:27:42;;;;;;;6.00;2.17;;;;;;;12.50;50.79;100293.47;10507192;28;20052;-58
2023/05/27 23:32:47;;;;;;;6.30;2.30;;;;;;;12.07;51.01;100299.59;10503676;28;20047;-58